sensor_id;sensor_type;location;lat;lon;timestamp;pressure;altitude;pressure_sealevel;temperature;humidity
29417;BME280;28421;51.030;4.006;2023-02-19T00:01:21;102081.19;;;10.82;84.50
29417;BME280;28421;51.030;4.006;2023-02-19T00:03:52;102037.19;;;10.64;84.31
29417;BME280;28421;51.030;4.006;2023-02-19T00:06:19;102077.94;;;10.69;84.65
29417;BME280;28421;51.030;4.006;2023-02-19T00:08:45;102077.69;;;10.62;84.63
29417;BME280;28421;51.030;4.006;2023-02-19T00:11:16;102043.28;;;10.56;84.35
29417;BME280;28421;51.030;4.006;2023-02-19T00:13:44;102019.53;;;10.42;84.06
29417;BME280;28421;51.030;4.006;2023-02-19T00:16:21;102061.81;;;10.69;84.24
29417;BME280;28421;51.030;4.006;2023-02-19T00:18:47;102074.00;;;10.63;84.23
29417;BME280;28421;51.030;4.006;2023-02-19T00:21:13;102072.44;;;10.61;83.96
29417;BME280;28421;51.030;4.006;2023-02-19T00:23:38;102056.16;;;10.53;83.79
29417;BME280;28421;51.030;4.006;2023-02-19T00:26:09;102075.00;;;10.62;83.51
29417;BME280;28421;51.030;4.006;2023-02-19T00:28:37;102019.94;;;10.28;83.72
29417;BME280;28421;51.030;4.006;2023-02-19T00:31:15;102019.50;;;10.32;83.53
29417;BME280;28421;51.030;4.006;2023-02-19T05:36:08;102249.03;;;9.80;75.95
29417;BME280;28421;51.030;4.006;2023-02-19T05:38:35;102240.13;;;9.79;76.07
29417;BME280;28421;51.030;4.006;2023-02-19T05:41:14;102232.84;;;9.70;75.53
29417;BME280;28421;51.030;4.006;2023-02-19T05:43:42;102281.66;;;9.96;75.57
29417;BME280;28421;51.030;4.006;2023-02-19T05:46:09;102261.22;;;9.84;75.64
29417;BME280;28421;51.030;4.006;2023-02-19T05:48:35;102254.13;;;9.83;75.50
29417;BME280;28421;51.030;4.006;2023-02-19T05:51:10;102266.16;;;9.79;75.33
29417;BME280;28421;51.030;4.006;2023-02-19T05:53:36;102301.75;;;10.02;75.52
29417;BME280;28421;51.030;4.006;2023-02-19T05:56:01;102269.69;;;9.79;75.41
29417;BME280;28421;51.030;4.006;2023-02-19T05:58:27;102278.19;;;9.84;75.16
29417;BME280;28421;51.030;4.006;2023-02-19T06:00:54;102277.63;;;9.90;74.98
29417;BME280;28421;51.030;4.006;2023-02-19T06:03:19;102258.25;;;9.87;74.51
29417;BME280;28421;51.030;4.006;2023-02-19T06:05:45;102291.41;;;9.97;74.64
29417;BME280;28421;51.030;4.006;2023-02-19T06:08:12;102288.69;;;9.87;74.52
29417;BME280;28421;51.030;4.006;2023-02-19T06:10:38;102299.53;;;9.86;74.95
29417;BME280;28421;51.030;4.006;2023-02-19T06:13:08;102295.41;;;9.82;74.52
29417;BME280;28421;51.030;4.006;2023-02-19T06:15:34;102320.50;;;9.92;74.65
29417;BME280;28421;51.030;4.006;2023-02-19T06:17:59;102281.78;;;9.74;75.02
29417;BME280;28421;51.030;4.006;2023-02-19T06:20:25;102299.22;;;9.79;74.92
29417;BME280;28421;51.030;4.006;2023-02-19T06:22:50;102299.78;;;9.83;75.13
29417;BME280;28421;51.030;4.006;2023-02-19T06:25:17;102275.63;;;9.62;74.93
29417;BME280;28421;51.030;4.006;2023-02-19T06:27:42;102314.59;;;9.98;74.75
29417;BME280;28421;51.030;4.006;2023-02-19T06:30:08;102290.19;;;9.80;74.18
29417;BME280;28421;51.030;4.006;2023-02-19T06:32:34;102342.06;;;10.02;74.56
29417;BME280;28421;51.030;4.006;2023-02-19T06:34:59;102304.91;;;9.86;74.31
29417;BME280;28421;51.030;4.006;2023-02-19T06:37:25;102339.13;;;10.05;74.55
29417;BME280;28421;51.030;4.006;2023-02-19T06:39:50;102316.00;;;9.92;74.26
29417;BME280;28421;51.030;4.006;2023-02-19T06:42:16;102294.75;;;9.68;74.54
29417;BME280;28421;51.030;4.006;2023-02-19T06:44:41;102276.53;;;9.51;74.81
29417;BME280;28421;51.030;4.006;2023-02-19T06:47:07;102294.75;;;9.68;74.41
29417;BME280;28421;51.030;4.006;2023-02-19T06:49:32;102311.06;;;9.77;74.47
29417;BME280;28421;51.030;4.006;2023-02-19T06:51:58;102301.81;;;9.69;74.27
29417;BME280;28421;51.030;4.006;2023-02-19T06:54:25;102343.16;;;9.99;74.01
29417;BME280;28421;51.030;4.006;2023-02-19T06:56:51;102286.56;;;9.49;74.29
29417;BME280;28421;51.030;4.006;2023-02-19T06:59:16;102299.28;;;9.68;73.96
29417;BME280;28421;51.030;4.006;2023-02-19T07:01:43;102324.69;;;9.85;73.99
29417;BME280;28421;51.030;4.006;2023-02-19T07:04:08;102305.94;;;9.74;74.01
29417;BME280;28421;51.030;4.006;2023-02-19T07:06:34;102322.59;;;9.88;74.14
29417;BME280;28421;51.030;4.006;2023-02-19T07:09:01;102328.56;;;9.92;74.21
29417;BME280;28421;51.030;4.006;2023-02-19T07:11:29;102359.22;;;10.10;73.68
29417;BME280;28421;51.030;4.006;2023-02-19T07:13:59;102337.41;;;9.83;73.88
29417;BME280;28421;51.030;4.006;2023-02-19T07:16:25;102351.63;;;9.94;74.12
29417;BME280;28421;51.030;4.006;2023-02-19T07:18:51;102372.25;;;10.15;74.11
29417;BME280;28421;51.030;4.006;2023-02-19T07:21:17;102320.81;;;9.78;73.97
29417;BME280;28421;51.030;4.006;2023-02-19T07:23:43;102334.19;;;9.89;73.24
29417;BME280;28421;51.030;4.006;2023-02-19T07:26:14;102388.13;;;10.18;73.35
29417;BME280;28421;51.030;4.006;2023-02-19T07:28:40;102388.28;;;10.16;73.19
29417;BME280;28421;51.030;4.006;2023-02-19T07:31:06;102363.69;;;9.79;73.52
29417;BME280;28421;51.030;4.006;2023-02-19T07:33:32;102365.53;;;9.79;73.67
29417;BME280;28421;51.030;4.006;2023-02-19T07:35:57;102385.59;;;9.95;73.81
29417;BME280;28421;51.030;4.006;2023-02-19T07:38:24;102413.63;;;10.03;73.92
29417;BME280;28421;51.030;4.006;2023-02-19T07:40:55;102354.69;;;9.69;73.62
29417;BME280;28421;51.030;4.006;2023-02-19T07:43:21;102382.75;;;9.97;73.38
29417;BME280;28421;51.030;4.006;2023-02-19T07:45:47;102377.53;;;9.95;73.50
29417;BME280;28421;51.030;4.006;2023-02-19T07:48:13;102360.72;;;9.82;73.10
29417;BME280;28421;51.030;4.006;2023-02-19T07:50:38;102358.38;;;9.68;73.39
29417;BME280;28421;51.030;4.006;2023-02-19T07:53:04;102404.13;;;9.99;73.10
29417;BME280;28421;51.030;4.006;2023-02-19T07:55:30;102422.53;;;10.03;73.44
29417;BME280;28421;51.030;4.006;2023-02-19T07:57:57;102361.25;;;9.97;72.57
29417;BME280;28421;51.030;4.006;2023-02-19T08:00:22;102412.91;;;10.21;72.04
29417;BME280;28421;51.030;4.006;2023-02-19T08:02:48;102354.50;;;9.82;72.67
29417;BME280;28421;51.030;4.006;2023-02-19T08:05:26;102397.44;;;10.14;72.26
29417;BME280;28421;51.030;4.006;2023-02-19T08:07:52;102415.41;;;10.55;71.19
29417;BME280;28421;51.030;4.006;2023-02-19T08:10:18;102448.88;;;10.41;72.06
29417;BME280;28421;51.030;4.006;2023-02-19T08:13:02;102465.06;;;10.30;72.87
29417;BME280;28421;51.030;4.006;2023-02-19T08:16:08;102442.59;;;10.20;72.86
29417;BME280;28421;51.030;4.006;2023-02-19T08:18:34;102428.69;;;10.26;72.28
29417;BME280;28421;51.030;4.006;2023-02-19T08:21:00;102476.72;;;10.61;71.98
29417;BME280;28421;51.030;4.006;2023-02-19T08:23:26;102483.66;;;10.33;72.90
29417;BME280;28421;51.030;4.006;2023-02-19T08:25:55;102472.41;;;10.28;72.90
29417;BME280;28421;51.030;4.006;2023-02-19T08:28:21;102452.44;;;10.10;73.24
29417;BME280;28421;51.030;4.006;2023-02-19T08:30:47;102424.56;;;9.90;72.60
29417;BME280;28421;51.030;4.006;2023-02-19T08:33:15;102432.00;;;10.18;72.44
29417;BME280;28421;51.030;4.006;2023-02-19T08:35:42;102501.88;;;10.18;72.93
29417;BME280;28421;51.030;4.006;2023-02-19T08:38:09;102505.88;;;10.24;73.12
29417;BME280;28421;51.030;4.006;2023-02-19T08:40:36;102512.25;;;10.23;73.09
29417;BME280;28421;51.030;4.006;2023-02-19T08:43:04;102510.78;;;10.30;73.22
29417;BME280;28421;51.030;4.006;2023-02-19T08:45:30;102481.63;;;10.14;72.44
29417;BME280;28421;51.030;4.006;2023-02-19T08:47:56;102433.84;;;9.86;72.62
29417;BME280;28421;51.030;4.006;2023-02-19T08:50:22;102505.81;;;10.47;71.90
29417;BME280;28421;51.030;4.006;2023-02-19T08:52:47;102523.63;;;10.27;72.42
29417;BME280;28421;51.030;4.006;2023-02-19T08:55:12;102508.69;;;10.23;72.03
29417;BME280;28421;51.030;4.006;2023-02-19T08:57:38;102533.41;;;10.49;71.54
29417;BME280;28421;51.030;4.006;2023-02-19T09:00:05;102470.44;;;9.98;71.76
29417;BME280;28421;51.030;4.006;2023-02-19T09:02:30;102468.91;;;10.16;71.82
29417;BME280;28421;51.030;4.006;2023-02-19T09:04:56;102482.59;;;10.25;71.66
29417;BME280;28421;51.030;4.006;2023-02-19T09:07:21;102445.66;;;9.94;71.80
29417;BME280;28421;51.030;4.006;2023-02-19T09:09:49;102438.44;;;9.95;71.76
29417;BME280;28421;51.030;4.006;2023-02-19T09:12:15;102467.13;;;10.06;72.07
29417;BME280;28421;51.030;4.006;2023-02-19T09:14:40;102490.59;;;10.04;71.71
29417;BME280;28421;51.030;4.006;2023-02-19T09:17:07;102540.03;;;10.44;71.69
29417;BME280;28421;51.030;4.006;2023-02-19T09:19:33;102477.16;;;10.04;71.39
29417;BME280;28421;51.030;4.006;2023-02-19T09:21:59;102480.94;;;10.01;71.60
29417;BME280;28421;51.030;4.006;2023-02-19T09:24:24;102505.56;;;10.17;71.66
29417;BME280;28421;51.030;4.006;2023-02-19T09:26:51;102499.97;;;10.09;71.46
29417;BME280;28421;51.030;4.006;2023-02-19T09:29:17;102498.88;;;10.12;71.35
29417;BME280;28421;51.030;4.006;2023-02-19T09:31:43;102543.88;;;10.63;71.34
29417;BME280;28421;51.030;4.006;2023-02-19T09:34:08;102493.16;;;10.37;70.69
29417;BME280;28421;51.030;4.006;2023-02-19T09:36:33;102491.72;;;10.33;70.34
29417;BME280;28421;51.030;4.006;2023-02-19T09:39:00;102520.50;;;10.63;70.04
29417;BME280;28421;51.030;4.006;2023-02-19T09:41:34;102491.50;;;10.25;70.28
29417;BME280;28421;51.030;4.006;2023-02-19T09:44:01;102544.75;;;10.73;70.30
29417;BME280;28421;51.030;4.006;2023-02-19T09:46:33;102488.41;;;10.30;70.08
29417;BME280;28421;51.030;4.006;2023-02-19T09:49:16;102529.03;;;10.48;70.35
29417;BME280;28421;51.030;4.006;2023-02-19T09:51:56;102510.53;;;10.54;70.21
29417;BME280;28421;51.030;4.006;2023-02-19T09:54:29;102492.63;;;10.64;69.70
29417;BME280;28421;51.030;4.006;2023-02-19T09:57:00;102492.09;;;10.29;69.83
29417;BME280;28421;51.030;4.006;2023-02-19T09:59:35;102532.44;;;10.70;69.77
29417;BME280;28421;51.030;4.006;2023-02-19T10:02:15;102544.38;;;10.78;69.29
29417;BME280;28421;51.030;4.006;2023-02-19T10:04:43;102535.19;;;10.59;69.29
29417;BME280;28421;51.030;4.006;2023-02-19T10:07:13;102526.53;;;10.35;69.58
29417;BME280;28421;51.030;4.006;2023-02-19T10:09:39;102536.03;;;10.39;69.85
29417;BME280;28421;51.030;4.006;2023-02-19T10:12:17;102579.69;;;10.63;70.08
29417;BME280;28421;51.030;4.006;2023-02-19T10:14:49;102491.69;;;10.01;70.10
29417;BME280;28421;51.030;4.006;2023-02-19T10:17:24;102595.97;;;10.83;69.84
29417;BME280;28421;51.030;4.006;2023-02-19T10:19:50;102605.50;;;10.87;69.76
29417;BME280;28421;51.030;4.006;2023-02-19T10:22:17;102574.56;;;10.60;69.81
29417;BME280;28421;51.030;4.006;2023-02-19T10:24:43;102602.59;;;10.79;69.56
29417;BME280;28421;51.030;4.006;2023-02-19T10:27:13;102546.94;;;10.37;69.42
29417;BME280;28421;51.030;4.006;2023-02-19T10:29:41;102561.16;;;10.49;69.30
29417;BME280;28421;51.030;4.006;2023-02-19T10:32:20;102611.72;;;10.87;69.56
29417;BME280;28421;51.030;4.006;2023-02-19T10:35:12;102611.56;;;10.68;69.87
29417;BME280;28421;51.030;4.006;2023-02-19T10:37:49;102621.91;;;10.84;69.63
29417;BME280;28421;51.030;4.006;2023-02-19T10:40:26;102555.88;;;10.27;69.72
29417;BME280;28421;51.030;4.006;2023-02-19T10:42:55;102628.25;;;10.62;70.05
29417;BME280;28421;51.030;4.006;2023-02-19T10:45:44;102612.75;;;10.54;70.24
29417;BME280;28421;51.030;4.006;2023-02-19T10:48:23;102624.34;;;10.87;69.83
29417;BME280;28421;51.030;4.006;2023-02-19T10:50:54;102601.25;;;10.73;69.59
29417;BME280;28421;51.030;4.006;2023-02-19T10:53:39;102582.56;;;10.72;69.19
29417;BME280;28421;51.030;4.006;2023-02-19T10:58:35;102598.13;;;10.89;68.98
29417;BME280;28421;51.030;4.006;2023-02-19T11:01:23;102632.75;;;10.82;69.27
29417;BME280;28421;51.030;4.006;2023-02-19T11:03:52;102600.56;;;10.39;69.97
29417;BME280;28421;51.030;4.006;2023-02-19T11:06:24;102603.28;;;10.60;69.99
29417;BME280;28421;51.030;4.006;2023-02-19T11:08:58;102592.50;;;10.39;70.39
29417;BME280;28421;51.030;4.006;2023-02-19T11:11:33;102617.28;;;10.54;70.69
29417;BME280;28421;51.030;4.006;2023-02-19T11:14:04;102660.53;;;10.62;70.28
29417;BME280;28421;51.030;4.006;2023-02-19T11:16:59;102672.25;;;10.61;70.19
29417;BME280;28421;51.030;4.006;2023-02-19T11:19:41;102668.09;;;10.57;70.26
29417;BME280;28421;51.030;4.006;2023-02-19T11:24:55;102641.25;;;10.45;70.18
29417;BME280;28421;51.030;4.006;2023-02-19T11:27:23;102667.28;;;10.77;70.26
29417;BME280;28421;51.030;4.006;2023-02-19T11:29:49;102666.19;;;10.80;70.13
29417;BME280;28421;51.030;4.006;2023-02-19T11:34:51;102588.56;;;10.00;70.63
29417;BME280;28421;51.030;4.006;2023-02-19T11:37:19;102676.78;;;10.60;70.41
29417;BME280;28421;51.030;4.006;2023-02-19T11:39:49;102618.06;;;10.33;70.67
29417;BME280;28421;51.030;4.006;2023-02-19T11:48:17;102669.53;;;10.29;70.48
29417;BME280;28421;51.030;4.006;2023-02-19T11:53:31;102598.13;;;10.36;69.53
29417;BME280;28421;51.030;4.006;2023-02-19T11:59:28;102563.44;;;10.21;68.81
29417;BME280;28421;51.030;4.006;2023-02-19T12:02:06;102634.59;;;10.82;69.34
29417;BME280;28421;51.030;4.006;2023-02-19T12:13:34;102632.06;;;11.01;68.47
29417;BME280;28421;51.030;4.006;2023-02-19T12:21:33;102636.34;;;11.25;66.86
29417;BME280;28421;51.030;4.006;2023-02-19T12:32:35;102651.50;;;10.84;67.32
29417;BME280;28421;51.030;4.006;2023-02-19T12:37:47;102670.38;;;10.93;67.25
29417;BME280;28421;51.030;4.006;2023-02-19T12:45:24;102617.28;;;10.54;66.90
29417;BME280;28421;51.030;4.006;2023-02-19T12:48:31;102686.28;;;10.64;67.14
29417;BME280;28421;51.030;4.006;2023-02-19T12:56:21;102646.53;;;10.36;67.30
29417;BME280;28421;51.030;4.006;2023-02-19T12:58:51;102684.22;;;10.25;69.11
29417;BME280;28421;51.030;4.006;2023-02-19T13:01:24;102644.38;;;9.96;69.75
29417;BME280;28421;51.030;4.006;2023-02-19T13:04:21;102682.16;;;9.83;71.07
29417;BME280;28421;51.030;4.006;2023-02-19T13:06:56;102638.16;;;9.73;70.38
29417;BME280;28421;51.030;4.006;2023-02-19T13:09:33;102685.19;;;10.01;70.43
29417;BME280;28421;51.030;4.006;2023-02-19T13:12:39;102682.22;;;10.15;70.11
29417;BME280;28421;51.030;4.006;2023-02-19T13:15:16;102642.22;;;9.79;70.00
29417;BME280;28421;51.030;4.006;2023-02-19T13:28:48;102701.03;;;10.15;69.50
29417;BME280;28421;51.030;4.006;2023-02-19T13:31:46;102624.25;;;9.68;69.18
29417;BME280;28421;51.030;4.006;2023-02-19T13:37:03;102646.59;;;9.80;67.53
29417;BME280;28421;51.030;4.006;2023-02-19T13:39:29;102699.44;;;10.24;68.09
29417;BME280;28421;51.030;4.006;2023-02-19T13:41:56;102707.53;;;10.02;67.37
29417;BME280;28421;51.030;4.006;2023-02-19T13:44:28;102706.19;;;9.85;68.00
29417;BME280;28421;51.030;4.006;2023-02-19T13:46:55;102651.72;;;9.60;68.11
29417;BME280;28421;51.030;4.006;2023-02-19T13:52:00;102667.84;;;9.71;67.77
29417;BME280;28421;51.030;4.006;2023-02-19T13:54:34;102682.97;;;10.06;67.51
29417;BME280;28421;51.030;4.006;2023-02-19T13:59:55;102707.78;;;9.76;68.64
29417;BME280;28421;51.030;4.006;2023-02-19T14:04:56;102738.41;;;9.74;69.85
29417;BME280;28421;51.030;4.006;2023-02-19T14:09:56;102744.88;;;9.82;70.27
29417;BME280;28421;51.030;4.006;2023-02-19T14:12:34;102741.94;;;9.63;71.73
29417;BME280;28421;51.030;4.006;2023-02-19T14:18:42;102721.44;;;9.15;76.39
29417;BME280;28421;51.030;4.006;2023-02-19T14:21:20;102756.31;;;9.51;77.12
29417;BME280;28421;51.030;4.006;2023-02-19T14:23:51;102704.50;;;8.91;78.27
29417;BME280;28421;51.030;4.006;2023-02-19T14:26:18;102730.13;;;8.95;78.54
29417;BME280;28421;51.030;4.006;2023-02-19T14:28:44;102732.16;;;9.04;79.16
29417;BME280;28421;51.030;4.006;2023-02-19T14:33:46;102731.66;;;9.10;77.75
29417;BME280;28421;51.030;4.006;2023-02-19T14:39:03;102782.50;;;9.71;77.03
29417;BME280;28421;51.030;4.006;2023-02-19T14:41:33;102774.09;;;9.40;76.87
29417;BME280;28421;51.030;4.006;2023-02-19T14:44:02;102754.94;;;9.45;76.82
29417;BME280;28421;51.030;4.006;2023-02-19T14:48:54;102717.50;;;9.43;75.73
29417;BME280;28421;51.030;4.006;2023-02-19T14:51:38;102775.34;;;9.48;76.66
29417;BME280;28421;51.030;4.006;2023-02-19T14:54:19;102708.06;;;9.27;76.00
29417;BME280;28421;51.030;4.006;2023-02-19T14:56:49;102719.41;;;9.30;76.27
29417;BME280;28421;51.030;4.006;2023-02-19T15:01:44;102690.16;;;9.03;76.11
29417;BME280;28421;51.030;4.006;2023-02-19T15:04:25;102772.13;;;9.66;75.77
29417;BME280;28421;51.030;4.006;2023-02-19T15:06:51;102725.63;;;8.95;75.18
29417;BME280;28421;51.030;4.006;2023-02-19T15:09:24;102696.75;;;8.99;74.85
29417;BME280;28421;51.030;4.006;2023-02-19T15:11:54;102755.75;;;9.58;74.11
29417;BME280;28421;51.030;4.006;2023-02-19T15:14:22;102709.50;;;9.19;74.12
29417;BME280;28421;51.030;4.006;2023-02-19T15:16:52;102765.50;;;9.59;73.42
29417;BME280;28421;51.030;4.006;2023-02-19T15:19:21;102755.03;;;9.32;72.84
29417;BME280;28421;51.030;4.006;2023-02-19T15:21:47;102744.66;;;9.28;73.88
29417;BME280;28421;51.030;4.006;2023-02-19T15:24:15;102756.94;;;9.19;74.07
29417;BME280;28421;51.030;4.006;2023-02-19T15:26:43;102722.78;;;9.10;74.08
29417;BME280;28421;51.030;4.006;2023-02-19T15:29:13;102769.28;;;9.21;74.93
29417;BME280;28421;51.030;4.006;2023-02-19T15:31:48;102705.09;;;9.18;74.23
29417;BME280;28421;51.030;4.006;2023-02-19T15:34:20;102680.84;;;8.85;75.29
29417;BME280;28421;51.030;4.006;2023-02-19T15:36:47;102748.53;;;9.24;75.18
29417;BME280;28421;51.030;4.006;2023-02-19T15:39:23;102693.88;;;9.13;74.77
29417;BME280;28421;51.030;4.006;2023-02-19T15:41:55;102709.47;;;9.08;75.42
29417;BME280;28421;51.030;4.006;2023-02-19T15:44:38;102749.13;;;9.51;74.46
29417;BME280;28421;51.030;4.006;2023-02-19T15:47:10;102774.94;;;9.30;74.73
29417;BME280;28421;51.030;4.006;2023-02-19T15:49:49;102741.69;;;9.08;74.51
29417;BME280;28421;51.030;4.006;2023-02-19T15:52:28;102748.13;;;9.06;74.38
29417;BME280;28421;51.030;4.006;2023-02-19T15:55:05;102742.59;;;9.31;74.08
29417;BME280;28421;51.030;4.006;2023-02-19T15:57:35;102723.84;;;9.07;73.84
29417;BME280;28421;51.030;4.006;2023-02-19T16:00:13;102761.25;;;9.21;73.91
29417;BME280;28421;51.030;4.006;2023-02-19T16:02:42;102740.41;;;9.01;73.48
29417;BME280;28421;51.030;4.006;2023-02-19T16:05:13;102717.63;;;8.83;73.51
29417;BME280;28421;51.030;4.006;2023-02-19T16:07:40;102711.91;;;8.76;74.07
29417;BME280;28421;51.030;4.006;2023-02-19T16:10:20;102715.25;;;8.91;73.83
29417;BME280;28421;51.030;4.006;2023-02-19T16:12:59;102733.03;;;9.16;73.29
29417;BME280;28421;51.030;4.006;2023-02-19T16:15:27;102704.44;;;9.04;72.81
29417;BME280;28421;51.030;4.006;2023-02-19T16:17:53;102736.09;;;9.23;73.16
29417;BME280;28421;51.030;4.006;2023-02-19T16:20:31;102691.22;;;8.65;74.00
29417;BME280;28421;51.030;4.006;2023-02-19T16:23:02;102716.00;;;8.93;74.09
29417;BME280;28421;51.030;4.006;2023-02-19T16:25:29;102767.56;;;9.20;74.59
29417;BME280;28421;51.030;4.006;2023-02-19T16:27:57;102724.25;;;8.90;74.72
29417;BME280;28421;51.030;4.006;2023-02-19T16:30:30;102774.59;;;9.10;74.72
29417;BME280;28421;51.030;4.006;2023-02-19T16:35:48;102707.66;;;8.85;74.56
29417;BME280;28421;51.030;4.006;2023-02-19T16:38:17;102734.34;;;9.10;74.05
29417;BME280;28421;51.030;4.006;2023-02-19T16:43:26;102781.09;;;9.19;74.67
29417;BME280;28421;51.030;4.006;2023-02-19T16:45:52;102785.16;;;9.25;74.70
29417;BME280;28421;51.030;4.006;2023-02-19T16:48:18;102738.53;;;8.90;75.29
29417;BME280;28421;51.030;4.006;2023-02-19T16:50:45;102738.19;;;8.95;74.96
29417;BME280;28421;51.030;4.006;2023-02-19T16:53:17;102790.84;;;9.20;75.00
29417;BME280;28421;51.030;4.006;2023-02-19T16:55:44;102747.97;;;8.72;75.76
29417;BME280;28421;51.030;4.006;2023-02-19T16:58:09;102775.88;;;8.93;76.25
29417;BME280;28421;51.030;4.006;2023-02-19T17:00:34;102739.06;;;8.71;76.18
29417;BME280;28421;51.030;4.006;2023-02-19T17:03:05;102752.41;;;8.60;75.86
29417;BME280;28421;51.030;4.006;2023-02-19T17:05:34;102747.28;;;8.81;75.89
29417;BME280;28421;51.030;4.006;2023-02-19T17:08:00;102751.94;;;8.66;76.16
29417;BME280;28421;51.030;4.006;2023-02-19T17:10:27;102776.09;;;8.90;75.05
29417;BME280;28421;51.030;4.006;2023-02-19T17:12:54;102735.84;;;8.66;74.77
29417;BME280;28421;51.030;4.006;2023-02-19T17:15:20;102752.53;;;8.59;75.33
29417;BME280;28421;51.030;4.006;2023-02-19T17:17:46;102733.78;;;8.46;75.02
29417;BME280;28421;51.030;4.006;2023-02-19T17:20:24;102759.06;;;8.79;74.49
29417;BME280;28421;51.030;4.006;2023-02-19T17:22:52;102803.72;;;9.04;74.41
29417;BME280;28421;51.030;4.006;2023-02-19T17:25:18;102771.63;;;8.78;73.97
29417;BME280;28421;51.030;4.006;2023-02-19T17:27:43;102798.06;;;8.71;73.19
29417;BME280;28421;51.030;4.006;2023-02-19T17:30:17;102740.41;;;8.53;72.52
29417;BME280;28421;51.030;4.006;2023-02-19T17:32:44;102753.97;;;8.39;72.61
29417;BME280;28421;51.030;4.006;2023-02-19T17:35:09;102789.72;;;8.63;72.87
29417;BME280;28421;51.030;4.006;2023-02-19T17:37:35;102744.19;;;8.25;72.43
29417;BME280;28421;51.030;4.006;2023-02-19T17:40:00;102767.03;;;8.31;72.72
29417;BME280;28421;51.030;4.006;2023-02-19T17:42:25;102768.56;;;8.22;72.56
29417;BME280;28421;51.030;4.006;2023-02-19T17:44:51;102806.38;;;8.30;72.96
29417;BME280;28421;51.030;4.006;2023-02-19T17:47:18;102797.91;;;8.11;73.02
29417;BME280;28421;51.030;4.006;2023-02-19T17:49:44;102791.50;;;8.13;73.11
29417;BME280;28421;51.030;4.006;2023-02-19T17:52:09;102768.88;;;7.92;72.73
29417;BME280;28421;51.030;4.006;2023-02-19T17:54:36;102751.88;;;7.80;72.83
29417;BME280;28421;51.030;4.006;2023-02-19T17:57:01;102812.50;;;8.07;72.97
29417;BME280;28421;51.030;4.006;2023-02-19T17:59:27;102791.06;;;7.94;73.33
29417;BME280;28421;51.030;4.006;2023-02-19T18:01:52;102821.81;;;8.01;73.38
29417;BME280;28421;51.030;4.006;2023-02-19T18:04:18;102791.06;;;7.94;72.99
29417;BME280;28421;51.030;4.006;2023-02-19T18:06:43;102778.41;;;7.83;73.04
29417;BME280;28421;51.030;4.006;2023-02-19T18:09:09;102792.25;;;8.03;72.55
29417;BME280;28421;51.030;4.006;2023-02-19T18:11:35;102755.50;;;7.79;72.74
29417;BME280;28421;51.030;4.006;2023-02-19T18:14:01;102775.13;;;7.80;72.62
29417;BME280;28421;51.030;4.006;2023-02-19T18:16:26;102782.91;;;7.83;72.96
29417;BME280;28421;51.030;4.006;2023-02-19T18:19:00;102823.31;;;8.18;72.89
29417;BME280;28421;51.030;4.006;2023-02-19T18:21:26;102817.19;;;8.29;72.59
29417;BME280;28421;51.030;4.006;2023-02-19T18:23:51;102778.66;;;7.93;72.51
29417;BME280;28421;51.030;4.006;2023-02-19T18:26:18;102814.84;;;7.98;72.46
29417;BME280;28421;51.030;4.006;2023-02-19T18:28:44;102785.28;;;7.75;72.28
29417;BME280;28421;51.030;4.006;2023-02-19T18:31:10;102816.34;;;7.90;72.29
29417;BME280;28421;51.030;4.006;2023-02-19T18:33:35;102789.56;;;7.64;72.18
29417;BME280;28421;51.030;4.006;2023-02-19T18:36:01;102790.63;;;7.62;72.63
29417;BME280;28421;51.030;4.006;2023-02-19T18:38:27;102764.88;;;7.34;72.52
29417;BME280;28421;51.030;4.006;2023-02-19T18:40:52;102818.47;;;7.59;73.09
29417;BME280;28421;51.030;4.006;2023-02-19T18:43:18;102839.06;;;7.71;73.19
29417;BME280;28421;51.030;4.006;2023-02-19T18:45:43;102807.09;;;7.56;73.24
29417;BME280;28421;51.030;4.006;2023-02-19T18:48:10;102817.47;;;7.47;73.43
29417;BME280;28421;51.030;4.006;2023-02-19T18:50:36;102772.13;;;7.19;73.89
29417;BME280;28421;51.030;4.006;2023-02-19T18:53:02;102813.69;;;7.37;74.30
29417;BME280;28421;51.030;4.006;2023-02-19T18:55:27;102783.13;;;7.14;74.42
29417;BME280;28421;51.030;4.006;2023-02-19T18:57:53;102812.09;;;7.35;74.60
29417;BME280;28421;51.030;4.006;2023-02-19T19:00:21;102787.94;;;7.09;74.53
29417;BME280;28421;51.030;4.006;2023-02-19T19:02:47;102824.91;;;7.30;74.85
29417;BME280;28421;51.030;4.006;2023-02-19T19:05:17;102831.41;;;7.26;75.03
29417;BME280;28421;51.030;4.006;2023-02-19T19:07:45;102798.91;;;7.05;75.35
29417;BME280;28421;51.030;4.006;2023-02-19T19:10:11;102781.28;;;7.02;75.56
29417;BME280;28421;51.030;4.006;2023-02-19T19:12:36;102800.25;;;7.12;75.55
29417;BME280;28421;51.030;4.006;2023-02-19T19:15:01;102770.06;;;6.83;75.59
29417;BME280;28421;51.030;4.006;2023-02-19T19:17:29;102778.88;;;6.85;75.91
29417;BME280;28421;51.030;4.006;2023-02-19T19:19:55;102805.66;;;6.97;76.22
29417;BME280;28421;51.030;4.006;2023-02-19T19:22:20;102779.72;;;6.85;76.13
29417;BME280;28421;51.030;4.006;2023-02-19T19:24:47;102756.88;;;6.80;75.98
29417;BME280;28421;51.030;4.006;2023-02-19T19:27:13;102800.84;;;7.03;76.19
29417;BME280;28421;51.030;4.006;2023-02-19T19:29:38;102774.13;;;6.88;76.41
29417;BME280;28421;51.030;4.006;2023-02-19T19:32:06;102753.97;;;6.70;76.35
29417;BME280;28421;51.030;4.006;2023-02-19T19:34:31;102762.75;;;6.72;76.47
29417;BME280;28421;51.030;4.006;2023-02-19T19:37:01;102799.16;;;6.87;76.58
29417;BME280;28421;51.030;4.006;2023-02-19T19:39:27;102750.69;;;6.52;76.46
29417;BME280;28421;51.030;4.006;2023-02-19T19:41:54;102738.56;;;6.46;76.95
29417;BME280;28421;51.030;4.006;2023-02-19T19:44:20;102798.31;;;6.87;76.61
29417;BME280;28421;51.030;4.006;2023-02-19T19:46:48;102780.41;;;6.75;76.58
29417;BME280;28421;51.030;4.006;2023-02-19T19:49:18;102793.28;;;6.82;76.60
29417;BME280;28421;51.030;4.006;2023-02-19T19:51:47;102777.06;;;6.71;76.63